Terminal Aerodrome Forecast
Issued by NWS

Home | Current Version | Previous Version | Text Only | Print | Product List | Glossary On
Versions: 1 2 3 4 5 6 7 8 9 10 11 12 13 14 15 16 17 18 19 20 21 22 23 24
000
FTUS41 KBTV 281152 AAA
TAFSLK
TAF AMD
KSLK 281152Z 2812/2912 34005KT 5SM BR SCT025 OVC070
      TEMPO 2812/2814 2SM BR OVC025
     FM281500 35006KT P6SM BKN070
     FM290000 33003KT P6SM SKC=

USA.gov is the U.S. government's official web portal to all federal, state and local government web resources and services.